sensor_id;sensor_type;location;lat;lon;timestamp;temperature;humidity
69895;DHT22;57172;52.034;5.090;2023-06-22T00:00:01;20.70;66.60
69895;DHT22;57172;52.034;5.090;2023-06-22T00:02:37;20.70;66.70
69895;DHT22;57172;52.034;5.090;2023-06-22T00:05:05;20.70;66.80
69895;DHT22;57172;52.034;5.090;2023-06-22T00:07:31;20.70;66.80
69895;DHT22;57172;52.034;5.090;2023-06-22T00:09:58;20.60;67.00
69895;DHT22;57172;52.034;5.090;2023-06-22T00:12:25;20.60;67.10
69895;DHT22;57172;52.034;5.090;2023-06-22T00:14:52;20.60;67.30
69895;DHT22;57172;52.034;5.090;2023-06-22T00:17:19;20.50;67.30
69895;DHT22;57172;52.034;5.090;2023-06-22T00:19:47;20.50;67.30
69895;DHT22;57172;52.034;5.090;2023-06-22T00:22:14;20.40;67.50
69895;DHT22;57172;52.034;5.090;2023-06-22T00:24:41;20.40;67.50
69895;DHT22;57172;52.034;5.090;2023-06-22T00:27:08;20.40;67.70
69895;DHT22;57172;52.034;5.090;2023-06-22T00:29:35;20.30;67.70
69895;DHT22;57172;52.034;5.090;2023-06-22T00:32:02;20.30;67.80
69895;DHT22;57172;52.034;5.090;2023-06-22T00:34:30;20.30;68.00
69895;DHT22;57172;52.034;5.090;2023-06-22T00:36:59;20.20;68.10
69895;DHT22;57172;52.034;5.090;2023-06-22T00:39:26;20.20;68.20
69895;DHT22;57172;52.034;5.090;2023-06-22T00:41:53;20.20;68.30
69895;DHT22;57172;52.034;5.090;2023-06-22T00:44:20;20.10;68.30
69895;DHT22;57172;52.034;5.090;2023-06-22T00:46:47;20.10;68.50
69895;DHT22;57172;52.034;5.090;2023-06-22T00:49:14;20.00;68.60
69895;DHT22;57172;52.034;5.090;2023-06-22T00:51:41;20.00;68.60
69895;DHT22;57172;52.034;5.090;2023-06-22T00:54:14;20.00;68.80
69895;DHT22;57172;52.034;5.090;2023-06-22T00:56:42;19.90;68.80
69895;DHT22;57172;52.034;5.090;2023-06-22T00:59:10;19.90;68.90
69895;DHT22;57172;52.034;5.090;2023-06-22T01:01:38;19.90;69.00
69895;DHT22;57172;52.034;5.090;2023-06-22T01:04:08;19.80;69.10
69895;DHT22;57172;52.034;5.090;2023-06-22T01:09:57;19.70;69.40
69895;DHT22;57172;52.034;5.090;2023-06-22T01:12:29;19.70;69.40
69895;DHT22;57172;52.034;5.090;2023-06-22T01:15:08;19.70;69.60
69895;DHT22;57172;52.034;5.090;2023-06-22T01:17:39;19.60;69.80
69895;DHT22;57172;52.034;5.090;2023-06-22T01:20:10;19.60;70.00
69895;DHT22;57172;52.034;5.090;2023-06-22T01:30:58;19.50;70.40
69895;DHT22;57172;52.034;5.090;2023-06-22T01:33:35;19.40;70.40
69895;DHT22;57172;52.034;5.090;2023-06-22T01:36:05;19.40;70.50
69895;DHT22;57172;52.034;5.090;2023-06-22T01:38:32;19.40;70.60
69895;DHT22;57172;52.034;5.090;2023-06-22T01:41:00;19.30;70.70
69895;DHT22;57172;52.034;5.090;2023-06-22T01:43:28;19.30;70.80
69895;DHT22;57172;52.034;5.090;2023-06-22T01:45:57;19.30;70.90
69895;DHT22;57172;52.034;5.090;2023-06-22T01:48:25;19.20;70.90
69895;DHT22;57172;52.034;5.090;2023-06-22T01:50:53;19.20;71.00
69895;DHT22;57172;52.034;5.090;2023-06-22T01:53:24;19.20;71.10
69895;DHT22;57172;52.034;5.090;2023-06-22T01:55:51;19.20;71.20
69895;DHT22;57172;52.034;5.090;2023-06-22T01:58:20;19.10;71.20
69895;DHT22;57172;52.034;5.090;2023-06-22T02:01:00;19.10;71.20
69895;DHT22;57172;52.034;5.090;2023-06-22T02:03:37;19.10;71.30
69895;DHT22;57172;52.034;5.090;2023-06-22T02:06:08;19.10;71.40
69895;DHT22;57172;52.034;5.090;2023-06-22T02:08:41;19.00;71.50
69895;DHT22;57172;52.034;5.090;2023-06-22T02:11:10;19.00;71.70
69895;DHT22;57172;52.034;5.090;2023-06-22T02:13:38;19.00;71.80
69895;DHT22;57172;52.034;5.090;2023-06-22T02:16:11;19.00;71.80
69895;DHT22;57172;52.034;5.090;2023-06-22T02:18:46;18.90;72.00
69895;DHT22;57172;52.034;5.090;2023-06-22T02:21:13;18.90;72.00
69895;DHT22;57172;52.034;5.090;2023-06-22T02:23:41;18.90;72.10
69895;DHT22;57172;52.034;5.090;2023-06-22T02:26:08;18.90;72.20
69895;DHT22;57172;52.034;5.090;2023-06-22T02:28:35;18.90;72.30
69895;DHT22;57172;52.034;5.090;2023-06-22T02:31:02;18.90;72.40
69895;DHT22;57172;52.034;5.090;2023-06-22T02:33:29;18.80;72.40
69895;DHT22;57172;52.034;5.090;2023-06-22T02:35:56;18.80;72.40
69895;DHT22;57172;52.034;5.090;2023-06-22T02:38:23;18.80;72.40
69895;DHT22;57172;52.034;5.090;2023-06-22T02:40:51;18.80;72.50
69895;DHT22;57172;52.034;5.090;2023-06-22T02:43:18;18.80;72.60
69895;DHT22;57172;52.034;5.090;2023-06-22T02:45:45;18.70;72.60
69895;DHT22;57172;52.034;5.090;2023-06-22T02:48:12;18.70;72.60
69895;DHT22;57172;52.034;5.090;2023-06-22T02:50:39;18.70;72.70
69895;DHT22;57172;52.034;5.090;2023-06-22T02:53:06;18.70;72.80
69895;DHT22;57172;52.034;5.090;2023-06-22T02:55:36;18.60;73.00
69895;DHT22;57172;52.034;5.090;2023-06-22T02:58:03;18.60;73.10
69895;DHT22;57172;52.034;5.090;2023-06-22T03:00:34;18.60;73.10
69895;DHT22;57172;52.034;5.090;2023-06-22T03:03:01;18.50;73.10
69895;DHT22;57172;52.034;5.090;2023-06-22T03:05:28;18.50;73.10
69895;DHT22;57172;52.034;5.090;2023-06-22T03:07:58;18.50;73.10
69895;DHT22;57172;52.034;5.090;2023-06-22T03:10:26;18.50;73.20
69895;DHT22;57172;52.034;5.090;2023-06-22T03:12:54;18.50;73.30
69895;DHT22;57172;52.034;5.090;2023-06-22T03:15:21;18.50;73.40
69895;DHT22;57172;52.034;5.090;2023-06-22T03:17:50;18.50;73.50
69895;DHT22;57172;52.034;5.090;2023-06-22T03:20:17;18.40;73.50
69895;DHT22;57172;52.034;5.090;2023-06-22T03:22:46;18.40;73.50
69895;DHT22;57172;52.034;5.090;2023-06-22T03:25:13;18.40;73.40
69895;DHT22;57172;52.034;5.090;2023-06-22T03:27:43;18.40;73.40
69895;DHT22;57172;52.034;5.090;2023-06-22T03:30:11;18.40;73.40
69895;DHT22;57172;52.034;5.090;2023-06-22T03:32:38;18.30;73.50
69895;DHT22;57172;52.034;5.090;2023-06-22T03:35:06;18.30;73.50
69895;DHT22;57172;52.034;5.090;2023-06-22T03:37:35;18.30;73.50
69895;DHT22;57172;52.034;5.090;2023-06-22T03:40:03;18.30;73.60
69895;DHT22;57172;52.034;5.090;2023-06-22T03:42:34;18.30;73.70
69895;DHT22;57172;52.034;5.090;2023-06-22T03:45:03;18.30;73.70
69895;DHT22;57172;52.034;5.090;2023-06-22T03:47:30;18.20;73.70
69895;DHT22;57172;52.034;5.090;2023-06-22T03:49:58;18.20;73.70
69895;DHT22;57172;52.034;5.090;2023-06-22T03:52:25;18.20;73.80
69895;DHT22;57172;52.034;5.090;2023-06-22T03:54:52;18.20;73.90
69895;DHT22;57172;52.034;5.090;2023-06-22T03:57:19;18.20;74.10
69895;DHT22;57172;52.034;5.090;2023-06-22T03:59:46;18.20;74.30
69895;DHT22;57172;52.034;5.090;2023-06-22T04:02:13;18.20;74.30
69895;DHT22;57172;52.034;5.090;2023-06-22T04:04:40;18.20;74.30
69895;DHT22;57172;52.034;5.090;2023-06-22T04:07:07;18.20;74.30
69895;DHT22;57172;52.034;5.090;2023-06-22T04:09:35;18.20;74.50
69895;DHT22;57172;52.034;5.090;2023-06-22T04:12:02;18.20;74.60
69895;DHT22;57172;52.034;5.090;2023-06-22T04:14:29;18.20;74.60
69895;DHT22;57172;52.034;5.090;2023-06-22T04:16:57;18.20;74.70
69895;DHT22;57172;52.034;5.090;2023-06-22T04:19:24;18.20;74.80
69895;DHT22;57172;52.034;5.090;2023-06-22T04:21:51;18.30;74.90
69895;DHT22;57172;52.034;5.090;2023-06-22T04:24:18;18.30;74.90
69895;DHT22;57172;52.034;5.090;2023-06-22T04:26:45;18.30;75.00
69895;DHT22;57172;52.034;5.090;2023-06-22T04:29:14;18.40;75.10
69895;DHT22;57172;52.034;5.090;2023-06-22T04:31:40;18.40;75.10
69895;DHT22;57172;52.034;5.090;2023-06-22T04:34:08;18.50;75.20
69895;DHT22;57172;52.034;5.090;2023-06-22T04:36:40;18.50;75.20
69895;DHT22;57172;52.034;5.090;2023-06-22T04:39:11;18.50;75.40
69895;DHT22;57172;52.034;5.090;2023-06-22T04:41:40;18.60;75.50
69895;DHT22;57172;52.034;5.090;2023-06-22T04:44:16;18.60;75.60
69895;DHT22;57172;52.034;5.090;2023-06-22T04:46:56;18.70;75.60
69895;DHT22;57172;52.034;5.090;2023-06-22T04:49:27;18.80;75.60
69895;DHT22;57172;52.034;5.090;2023-06-22T04:52:04;18.90;75.50
69895;DHT22;57172;52.034;5.090;2023-06-22T04:54:32;18.90;75.40
69895;DHT22;57172;52.034;5.090;2023-06-22T04:57:01;19.00;75.40
69895;DHT22;57172;52.034;5.090;2023-06-22T04:59:29;19.10;75.30
69895;DHT22;57172;52.034;5.090;2023-06-22T05:01:58;19.10;75.20
69895;DHT22;57172;52.034;5.090;2023-06-22T05:04:26;19.10;75.20
69895;DHT22;57172;52.034;5.090;2023-06-22T05:06:54;19.20;75.10
69895;DHT22;57172;52.034;5.090;2023-06-22T05:09:21;19.20;75.10
69895;DHT22;57172;52.034;5.090;2023-06-22T05:11:49;19.30;75.00
69895;DHT22;57172;52.034;5.090;2023-06-22T05:14:15;19.30;75.00
69895;DHT22;57172;52.034;5.090;2023-06-22T05:16:43;19.40;74.90
69895;DHT22;57172;52.034;5.090;2023-06-22T05:19:10;19.40;74.90
69895;DHT22;57172;52.034;5.090;2023-06-22T05:21:37;19.50;74.90
69895;DHT22;57172;52.034;5.090;2023-06-22T05:24:04;19.50;74.80
69895;DHT22;57172;52.034;5.090;2023-06-22T05:26:33;19.60;74.80
69895;DHT22;57172;52.034;5.090;2023-06-22T05:29:01;19.60;74.80
69895;DHT22;57172;52.034;5.090;2023-06-22T05:31:29;19.70;74.90
69895;DHT22;57172;52.034;5.090;2023-06-22T05:33:56;19.80;75.00
69895;DHT22;57172;52.034;5.090;2023-06-22T05:36:23;19.80;74.90
69895;DHT22;57172;52.034;5.090;2023-06-22T05:38:52;19.90;74.70
69895;DHT22;57172;52.034;5.090;2023-06-22T05:41:19;20.00;74.90
69895;DHT22;57172;52.034;5.090;2023-06-22T05:43:46;20.20;74.90
69895;DHT22;57172;52.034;5.090;2023-06-22T05:46:13;20.30;74.90
69895;DHT22;57172;52.034;5.090;2023-06-22T05:48:40;20.40;74.80
69895;DHT22;57172;52.034;5.090;2023-06-22T05:51:07;20.50;74.40
69895;DHT22;57172;52.034;5.090;2023-06-22T05:53:34;20.60;74.30
69895;DHT22;57172;52.034;5.090;2023-06-22T05:56:01;20.80;74.10
69895;DHT22;57172;52.034;5.090;2023-06-22T05:58:28;20.90;73.70
69895;DHT22;57172;52.034;5.090;2023-06-22T06:00:55;21.00;73.80
69895;DHT22;57172;52.034;5.090;2023-06-22T06:03:22;21.10;73.50
69895;DHT22;57172;52.034;5.090;2023-06-22T06:05:49;21.20;72.80
69895;DHT22;57172;52.034;5.090;2023-06-22T06:08:17;21.30;72.80
69895;DHT22;57172;52.034;5.090;2023-06-22T06:10:43;21.40;72.90
69895;DHT22;57172;52.034;5.090;2023-06-22T06:13:10;21.60;72.30
69895;DHT22;57172;52.034;5.090;2023-06-22T06:15:37;21.70;71.90
69895;DHT22;57172;52.034;5.090;2023-06-22T06:18:05;21.80;71.60
69895;DHT22;57172;52.034;5.090;2023-06-22T06:20:33;21.90;71.40
69895;DHT22;57172;52.034;5.090;2023-06-22T06:23:00;22.00;71.00
69895;DHT22;57172;52.034;5.090;2023-06-22T06:25:28;22.10;71.10
69895;DHT22;57172;52.034;5.090;2023-06-22T06:27:55;22.20;70.70
69895;DHT22;57172;52.034;5.090;2023-06-22T06:30:22;22.40;70.50
69895;DHT22;57172;52.034;5.090;2023-06-22T06:32:50;22.50;70.40
69895;DHT22;57172;52.034;5.090;2023-06-22T06:35:17;22.60;70.40
69895;DHT22;57172;52.034;5.090;2023-06-22T06:37:48;22.70;70.40
69895;DHT22;57172;52.034;5.090;2023-06-22T06:40:17;22.90;69.90
69895;DHT22;57172;52.034;5.090;2023-06-22T06:42:46;23.00;69.50
69895;DHT22;57172;52.034;5.090;2023-06-22T06:45:18;23.00;69.30
69895;DHT22;57172;52.034;5.090;2023-06-22T06:47:45;23.10;69.30
69895;DHT22;57172;52.034;5.090;2023-06-22T06:50:12;23.20;69.40
69895;DHT22;57172;52.034;5.090;2023-06-22T06:52:40;23.30;69.30
69895;DHT22;57172;52.034;5.090;2023-06-22T06:55:07;23.40;69.30
69895;DHT22;57172;52.034;5.090;2023-06-22T06:57:39;23.60;68.90
69895;DHT22;57172;52.034;5.090;2023-06-22T07:00:13;23.70;68.90
69895;DHT22;57172;52.034;5.090;2023-06-22T07:02:43;23.90;68.70
69895;DHT22;57172;52.034;5.090;2023-06-22T07:05:11;24.10;68.40
69895;DHT22;57172;52.034;5.090;2023-06-22T07:07:39;24.20;67.90
69895;DHT22;57172;52.034;5.090;2023-06-22T07:10:06;24.30;66.80
69895;DHT22;57172;52.034;5.090;2023-06-22T07:12:34;24.30;66.40
69895;DHT22;57172;52.034;5.090;2023-06-22T07:15:06;24.30;66.50
69895;DHT22;57172;52.034;5.090;2023-06-22T07:17:37;24.30;66.40
69895;DHT22;57172;52.034;5.090;2023-06-22T07:20:06;24.40;66.10
69895;DHT22;57172;52.034;5.090;2023-06-22T07:22:39;24.50;65.70
69895;DHT22;57172;52.034;5.090;2023-06-22T07:25:07;24.50;65.80
69895;DHT22;57172;52.034;5.090;2023-06-22T07:27:46;24.60;65.20
69895;DHT22;57172;52.034;5.090;2023-06-22T07:30:13;24.60;65.00
69895;DHT22;57172;52.034;5.090;2023-06-22T07:32:40;24.60;65.10
69895;DHT22;57172;52.034;5.090;2023-06-22T07:35:07;24.70;65.30
69895;DHT22;57172;52.034;5.090;2023-06-22T07:37:35;24.90;65.00
69895;DHT22;57172;52.034;5.090;2023-06-22T07:40:02;25.00;64.40
69895;DHT22;57172;52.034;5.090;2023-06-22T07:42:33;25.10;63.80
69895;DHT22;57172;52.034;5.090;2023-06-22T07:45:00;25.00;63.80
69895;DHT22;57172;52.034;5.090;2023-06-22T07:47:28;25.10;63.30
69895;DHT22;57172;52.034;5.090;2023-06-22T07:49:57;25.00;62.90
69895;DHT22;57172;52.034;5.090;2023-06-22T07:52:25;25.00;63.20
69895;DHT22;57172;52.034;5.090;2023-06-22T07:54:54;25.20;63.50
69895;DHT22;57172;52.034;5.090;2023-06-22T07:57:21;25.30;63.00
69895;DHT22;57172;52.034;5.090;2023-06-22T07:59:48;25.40;63.10
69895;DHT22;57172;52.034;5.090;2023-06-22T08:02:15;25.60;62.50
69895;DHT22;57172;52.034;5.090;2023-06-22T08:04:42;25.70;62.10
69895;DHT22;57172;52.034;5.090;2023-06-22T08:07:09;25.80;61.70
69895;DHT22;57172;52.034;5.090;2023-06-22T08:09:37;25.90;61.10
69895;DHT22;57172;52.034;5.090;2023-06-22T08:12:04;26.00;61.30
69895;DHT22;57172;52.034;5.090;2023-06-22T08:14:31;26.10;60.80
69895;DHT22;57172;52.034;5.090;2023-06-22T08:16:58;26.20;59.70
69895;DHT22;57172;52.034;5.090;2023-06-22T08:19:25;26.20;60.10
69895;DHT22;57172;52.034;5.090;2023-06-22T08:21:52;26.40;59.50
69895;DHT22;57172;52.034;5.090;2023-06-22T08:24:19;26.50;58.70
69895;DHT22;57172;52.034;5.090;2023-06-22T08:26:46;26.70;58.30
69895;DHT22;57172;52.034;5.090;2023-06-22T08:29:13;26.90;57.70
69895;DHT22;57172;52.034;5.090;2023-06-22T08:31:44;27.10;56.90
69895;DHT22;57172;52.034;5.090;2023-06-22T08:34:11;27.10;56.20
69895;DHT22;57172;52.034;5.090;2023-06-22T08:36:40;27.20;55.80
69895;DHT22;57172;52.034;5.090;2023-06-22T08:39:10;27.20;55.90
69895;DHT22;57172;52.034;5.090;2023-06-22T08:41:36;27.30;55.00
69895;DHT22;57172;52.034;5.090;2023-06-22T08:44:03;27.40;54.90
69895;DHT22;57172;52.034;5.090;2023-06-22T08:46:30;27.60;54.80
69895;DHT22;57172;52.034;5.090;2023-06-22T08:49:00;27.70;54.60
69895;DHT22;57172;52.034;5.090;2023-06-22T08:51:27;27.80;54.20
69895;DHT22;57172;52.034;5.090;2023-06-22T08:53:55;27.90;53.60
69895;DHT22;57172;52.034;5.090;2023-06-22T08:56:22;27.90;52.60
69895;DHT22;57172;52.034;5.090;2023-06-22T08:58:49;27.90;52.50
69895;DHT22;57172;52.034;5.090;2023-06-22T09:01:15;28.00;52.40
69895;DHT22;57172;52.034;5.090;2023-06-22T09:03:42;28.00;52.40
69895;DHT22;57172;52.034;5.090;2023-06-22T09:06:10;28.10;52.00
69895;DHT22;57172;52.034;5.090;2023-06-22T09:08:37;28.20;51.60
69895;DHT22;57172;52.034;5.090;2023-06-22T09:11:04;28.20;51.20
69895;DHT22;57172;52.034;5.090;2023-06-22T09:13:32;28.20;51.40
69895;DHT22;57172;52.034;5.090;2023-06-22T09:15:59;28.20;51.00
69895;DHT22;57172;52.034;5.090;2023-06-22T09:18:26;28.30;51.40
69895;DHT22;57172;52.034;5.090;2023-06-22T09:20:53;28.50;51.30
69895;DHT22;57172;52.034;5.090;2023-06-22T09:23:20;28.60;51.30
69895;DHT22;57172;52.034;5.090;2023-06-22T09:25:47;28.70;50.90
69895;DHT22;57172;52.034;5.090;2023-06-22T09:28:15;28.80;50.80
69895;DHT22;57172;52.034;5.090;2023-06-22T09:30:43;28.90;50.60
69895;DHT22;57172;52.034;5.090;2023-06-22T09:33:11;29.00;50.50
69895;DHT22;57172;52.034;5.090;2023-06-22T09:35:38;29.00;50.20
69895;DHT22;57172;52.034;5.090;2023-06-22T09:38:05;29.00;49.50
69895;DHT22;57172;52.034;5.090;2023-06-22T09:40:32;28.90;49.80
69895;DHT22;57172;52.034;5.090;2023-06-22T09:43:02;28.80;49.90
69895;DHT22;57172;52.034;5.090;2023-06-22T09:45:29;28.80;49.60
69895;DHT22;57172;52.034;5.090;2023-06-22T09:47:56;28.80;49.60
69895;DHT22;57172;52.034;5.090;2023-06-22T09:50:23;28.70;49.50
69895;DHT22;57172;52.034;5.090;2023-06-22T09:52:50;28.70;49.60
69895;DHT22;57172;52.034;5.090;2023-06-22T09:55:22;28.70;49.50
69895;DHT22;57172;52.034;5.090;2023-06-22T09:57:49;28.60;49.50
69895;DHT22;57172;52.034;5.090;2023-06-22T10:00:17;28.60;49.60
69895;DHT22;57172;52.034;5.090;2023-06-22T10:02:46;28.60;49.90
69895;DHT22;57172;52.034;5.090;2023-06-22T10:05:13;28.50;49.60
69895;DHT22;57172;52.034;5.090;2023-06-22T10:07:41;28.50;49.70
69895;DHT22;57172;52.034;5.090;2023-06-22T10:10:11;28.50;49.80
69895;DHT22;57172;52.034;5.090;2023-06-22T10:12:48;28.50;49.30
69895;DHT22;57172;52.034;5.090;2023-06-22T10:15:20;28.50;49.00
69895;DHT22;57172;52.034;5.090;2023-06-22T10:17:47;28.40;49.00
69895;DHT22;57172;52.034;5.090;2023-06-22T10:20:15;28.30;49.40
69895;DHT22;57172;52.034;5.090;2023-06-22T10:22:43;28.30;49.60
69895;DHT22;57172;52.034;5.090;2023-06-22T10:25:12;28.10;49.50
69895;DHT22;57172;52.034;5.090;2023-06-22T10:27:40;28.00;49.90
69895;DHT22;57172;52.034;5.090;2023-06-22T10:30:08;28.00;50.00
69895;DHT22;57172;52.034;5.090;2023-06-22T10:32:37;27.90;50.10
69895;DHT22;57172;52.034;5.090;2023-06-22T10:35:04;27.80;50.30
69895;DHT22;57172;52.034;5.090;2023-06-22T10:37:31;27.80;50.30
69895;DHT22;57172;52.034;5.090;2023-06-22T10:39:58;27.80;50.60
69895;DHT22;57172;52.034;5.090;2023-06-22T10:42:25;27.80;50.40
69895;DHT22;57172;52.034;5.090;2023-06-22T10:44:52;27.70;50.30
69895;DHT22;57172;52.034;5.090;2023-06-22T10:47:19;27.50;50.50
69895;DHT22;57172;52.034;5.090;2023-06-22T10:49:47;27.40;50.70
69895;DHT22;57172;52.034;5.090;2023-06-22T10:52:14;27.40;50.90
69895;DHT22;57172;52.034;5.090;2023-06-22T10:54:42;27.30;51.10
69895;DHT22;57172;52.034;5.090;2023-06-22T10:57:08;27.30;51.20
69895;DHT22;57172;52.034;5.090;2023-06-22T10:59:35;27.40;51.60
69895;DHT22;57172;52.034;5.090;2023-06-22T11:02:02;27.40;51.40
69895;DHT22;57172;52.034;5.090;2023-06-22T11:04:29;27.30;51.20
69895;DHT22;57172;52.034;5.090;2023-06-22T11:06:56;27.30;51.80
69895;DHT22;57172;52.034;5.090;2023-06-22T11:09:23;27.30;51.90
69895;DHT22;57172;52.034;5.090;2023-06-22T11:11:55;27.30;52.30
69895;DHT22;57172;52.034;5.090;2023-06-22T11:14:22;27.30;52.30
69895;DHT22;57172;52.034;5.090;2023-06-22T11:16:49;27.30;52.30
69895;DHT22;57172;52.034;5.090;2023-06-22T11:19:17;27.30;52.50
69895;DHT22;57172;52.034;5.090;2023-06-22T11:21:44;27.30;52.50
69895;DHT22;57172;52.034;5.090;2023-06-22T11:24:11;27.30;52.50
69895;DHT22;57172;52.034;5.090;2023-06-22T11:26:38;27.40;52.60
69895;DHT22;57172;52.034;5.090;2023-06-22T11:29:05;27.30;52.60
69895;DHT22;57172;52.034;5.090;2023-06-22T11:31:32;27.30;52.70
69895;DHT22;57172;52.034;5.090;2023-06-22T11:33:59;27.40;53.10
69895;DHT22;57172;52.034;5.090;2023-06-22T11:36:26;27.50;53.20
69895;DHT22;57172;52.034;5.090;2023-06-22T11:38:54;27.50;53.30
69895;DHT22;57172;52.034;5.090;2023-06-22T11:41:20;27.60;53.20
69895;DHT22;57172;52.034;5.090;2023-06-22T11:43:47;27.60;53.10
69895;DHT22;57172;52.034;5.090;2023-06-22T11:46:14;27.60;52.90
69895;DHT22;57172;52.034;5.090;2023-06-22T11:48:41;27.60;53.10
69895;DHT22;57172;52.034;5.090;2023-06-22T11:51:08;27.70;53.20
69895;DHT22;57172;52.034;5.090;2023-06-22T11:53:35;27.70;53.00
69895;DHT22;57172;52.034;5.090;2023-06-22T11:56:02;27.70;53.10
69895;DHT22;57172;52.034;5.090;2023-06-22T11:58:29;27.70;52.60
69895;DHT22;57172;52.034;5.090;2023-06-22T12:00:56;27.70;52.70
69895;DHT22;57172;52.034;5.090;2023-06-22T12:03:23;27.70;52.20
69895;DHT22;57172;52.034;5.090;2023-06-22T12:05:51;27.70;52.10
69895;DHT22;57172;52.034;5.090;2023-06-22T12:08:19;27.70;52.00
69895;DHT22;57172;52.034;5.090;2023-06-22T12:10:46;27.70;51.90
69895;DHT22;57172;52.034;5.090;2023-06-22T12:13:13;27.60;52.00
69895;DHT22;57172;52.034;5.090;2023-06-22T12:15:40;27.60;51.70
69895;DHT22;57172;52.034;5.090;2023-06-22T12:18:07;27.60;51.80
69895;DHT22;57172;52.034;5.090;2023-06-22T12:20:35;27.50;51.80
69895;DHT22;57172;52.034;5.090;2023-06-22T12:23:02;27.40;52.00
69895;DHT22;57172;52.034;5.090;2023-06-22T12:25:29;27.20;52.20
69895;DHT22;57172;52.034;5.090;2023-06-22T12:27:56;27.10;53.00
69895;DHT22;57172;52.034;5.090;2023-06-22T12:30:23;27.10;53.80
69895;DHT22;57172;52.034;5.090;2023-06-22T12:32:50;27.10;54.50
69895;DHT22;57172;52.034;5.090;2023-06-22T12:35:20;27.10;54.60
69895;DHT22;57172;52.034;5.090;2023-06-22T12:37:47;27.00;54.60
69895;DHT22;57172;52.034;5.090;2023-06-22T12:40:14;26.90;54.60
69895;DHT22;57172;52.034;5.090;2023-06-22T12:42:41;26.70;54.60
69895;DHT22;57172;52.034;5.090;2023-06-22T12:45:09;26.60;55.00
69895;DHT22;57172;52.034;5.090;2023-06-22T12:47:36;26.50;55.20
69895;DHT22;57172;52.034;5.090;2023-06-22T12:50:03;26.50;55.30
69895;DHT22;57172;52.034;5.090;2023-06-22T12:52:31;26.40;55.60
69895;DHT22;57172;52.034;5.090;2023-06-22T12:54:59;26.40;56.00
69895;DHT22;57172;52.034;5.090;2023-06-22T12:57:26;26.30;56.10
69895;DHT22;57172;52.034;5.090;2023-06-22T12:59:53;26.30;56.40
69895;DHT22;57172;52.034;5.090;2023-06-22T13:02:20;26.20;56.80
69895;DHT22;57172;52.034;5.090;2023-06-22T13:04:46;26.20;57.40
69895;DHT22;57172;52.034;5.090;2023-06-22T13:07:13;26.10;58.00
69895;DHT22;57172;52.034;5.090;2023-06-22T13:09:50;26.00;58.60
69895;DHT22;57172;52.034;5.090;2023-06-22T13:12:20;26.00;59.00
69895;DHT22;57172;52.034;5.090;2023-06-22T13:14:48;25.90;59.70
69895;DHT22;57172;52.034;5.090;2023-06-22T13:17:16;25.80;60.20
69895;DHT22;57172;52.034;5.090;2023-06-22T13:19:43;25.80;60.70
69895;DHT22;57172;52.034;5.090;2023-06-22T13:22:27;25.70;61.10
69895;DHT22;57172;52.034;5.090;2023-06-22T13:24:55;25.70;61.50
69895;DHT22;57172;52.034;5.090;2023-06-22T13:27:23;25.70;61.90
69895;DHT22;57172;52.034;5.090;2023-06-22T13:29:51;25.70;62.30
69895;DHT22;57172;52.034;5.090;2023-06-22T13:32:18;25.60;62.50
69895;DHT22;57172;52.034;5.090;2023-06-22T13:34:45;25.40;62.90
69895;DHT22;57172;52.034;5.090;2023-06-22T13:37:11;25.30;63.50
69895;DHT22;57172;52.034;5.090;2023-06-22T13:39:38;25.30;63.90
69895;DHT22;57172;52.034;5.090;2023-06-22T13:42:05;25.20;63.90
69895;DHT22;57172;52.034;5.090;2023-06-22T13:44:33;25.10;64.30
69895;DHT22;57172;52.034;5.090;2023-06-22T13:46:59;25.00;64.60
69895;DHT22;57172;52.034;5.090;2023-06-22T13:49:26;24.90;65.10
69895;DHT22;57172;52.034;5.090;2023-06-22T13:51:53;24.80;65.40
69895;DHT22;57172;52.034;5.090;2023-06-22T13:54:20;24.60;65.70
69895;DHT22;57172;52.034;5.090;2023-06-22T13:56:56;24.60;66.20
69895;DHT22;57172;52.034;5.090;2023-06-22T13:59:23;24.60;66.80
69895;DHT22;57172;52.034;5.090;2023-06-22T14:01:50;24.60;67.10
69895;DHT22;57172;52.034;5.090;2023-06-22T14:04:17;24.60;67.50
69895;DHT22;57172;52.034;5.090;2023-06-22T14:06:43;24.60;67.70
69895;DHT22;57172;52.034;5.090;2023-06-22T14:09:10;24.60;67.90
69895;DHT22;57172;52.034;5.090;2023-06-22T14:11:37;24.60;67.60
69895;DHT22;57172;52.034;5.090;2023-06-22T14:14:04;24.50;67.70
69895;DHT22;57172;52.034;5.090;2023-06-22T14:16:31;24.40;67.80
69895;DHT22;57172;52.034;5.090;2023-06-22T14:18:58;24.40;68.00
69895;DHT22;57172;52.034;5.090;2023-06-22T14:21:26;24.40;68.30
69895;DHT22;57172;52.034;5.090;2023-06-22T14:23:53;24.40;68.40
69895;DHT22;57172;52.034;5.090;2023-06-22T14:26:20;24.30;68.10
69895;DHT22;57172;52.034;5.090;2023-06-22T14:28:48;24.30;68.40
69895;DHT22;57172;52.034;5.090;2023-06-22T14:31:17;24.30;68.30
69895;DHT22;57172;52.034;5.090;2023-06-22T14:33:48;24.20;68.40
69895;DHT22;57172;52.034;5.090;2023-06-22T14:36:16;24.20;68.70
69895;DHT22;57172;52.034;5.090;2023-06-22T14:38:44;24.10;68.50
69895;DHT22;57172;52.034;5.090;2023-06-22T14:41:11;24.00;68.60
69895;DHT22;57172;52.034;5.090;2023-06-22T14:43:45;23.90;68.60
69895;DHT22;57172;52.034;5.090;2023-06-22T14:46:14;23.80;68.60
69895;DHT22;57172;52.034;5.090;2023-06-22T14:48:41;23.70;68.90
69895;DHT22;57172;52.034;5.090;2023-06-22T14:51:09;23.60;68.90
69895;DHT22;57172;52.034;5.090;2023-06-22T14:53:40;23.60;69.10
69895;DHT22;57172;52.034;5.090;2023-06-22T14:56:07;23.60;69.20
69895;DHT22;57172;52.034;5.090;2023-06-22T14:58:34;23.50;69.20
69895;DHT22;57172;52.034;5.090;2023-06-22T15:01:03;23.50;69.00
69895;DHT22;57172;52.034;5.090;2023-06-22T15:03:31;23.40;69.10
69895;DHT22;57172;52.034;5.090;2023-06-22T15:05:59;23.40;69.10
69895;DHT22;57172;52.034;5.090;2023-06-22T15:08:27;23.30;69.00
69895;DHT22;57172;52.034;5.090;2023-06-22T15:10:54;23.30;69.10
69895;DHT22;57172;52.034;5.090;2023-06-22T15:13:21;23.30;69.20
69895;DHT22;57172;52.034;5.090;2023-06-22T15:15:50;23.30;69.20
69895;DHT22;57172;52.034;5.090;2023-06-22T15:18:17;23.30;69.40
69895;DHT22;57172;52.034;5.090;2023-06-22T15:20:44;23.20;69.50
69895;DHT22;57172;52.034;5.090;2023-06-22T15:23:12;23.20;69.70
69895;DHT22;57172;52.034;5.090;2023-06-22T15:25:40;23.20;70.00
69895;DHT22;57172;52.034;5.090;2023-06-22T15:28:07;23.20;70.10
69895;DHT22;57172;52.034;5.090;2023-06-22T15:30:34;23.20;70.00
69895;DHT22;57172;52.034;5.090;2023-06-22T15:33:01;23.10;70.00
69895;DHT22;57172;52.034;5.090;2023-06-22T15:35:28;23.10;69.80
69895;DHT22;57172;52.034;5.090;2023-06-22T15:37:55;23.00;70.10
69895;DHT22;57172;52.034;5.090;2023-06-22T15:40:22;23.00;70.00
69895;DHT22;57172;52.034;5.090;2023-06-22T15:42:50;23.00;70.10
69895;DHT22;57172;52.034;5.090;2023-06-22T15:45:19;23.00;70.40